This is the latest recevied weather packets stored in our database for station/object KO4FR. If no packets are shown the sender has not sent any weather packets the latest 10 day(s).
| Time | Temp. | Humidity | Pressure | Rain* | Wind** | Luminosity | Snow |
|---|---|---|---|---|---|---|---|
| 1778258998 | 18.89° C | 40% | 1017.7 hPa | 0 mm | - | - | - |
| 1778258698 | 19.44° C | 37% | 1017.8 hPa | 0 mm | - | - | - |
| 1778258397 | 19.44° C | 37% | 1017.9 hPa | 0 mm | - | - | - |
| 1778258097 | 18.89° C | 42% | 1018 hPa | 0 mm | - | - | - |
| 1778257796 | 18.89° C | 44% | 1018.1 hPa | 0 mm | - | - | - |
| 1778257496 | 18.89° C | 42% | 1018.1 hPa | 0 mm | - | - | - |
| 1778257195 | 18.89° C | 42% | 1018.3 hPa | 0 mm | - | - | - |
| 1778256894 | 18.33° C | 45% | 1018.2 hPa | 0 mm | - | - | - |
| 1778256595 | 18.33° C | 43% | 1018.2 hPa | 0 mm | - | - | - |
| 1778256294 | 18.89° C | 41% | 1018.4 hPa | 0 mm | - | - | - |
| 1778255993 | 18.33° C | 44% | 1018.4 hPa | 0 mm | - | - | - |
| 1778255694 | 18.33° C | 43% | 1018.5 hPa | 0 mm | - | - | - |
| 1778255393 | 18.33° C | 44% | 1018.6 hPa | 0 mm | - | - | - |
| 1778255093 | 17.78° C | 46% | 1018.5 hPa | 0 mm | - | - | - |
| 1778254792 | 18.33° C | 43% | 1018.6 hPa | 0 mm | - | - | - |
| 1778254492 | 18.33° C | 45% | 1018.6 hPa | 0 mm | - | - | - |
| 1778254191 | 17.78° C | 49% | 1018.5 hPa | 0 mm | - | - | - |
| 1778253891 | 17.78° C | 49% | 1018.4 hPa | 0 mm | - | - | - |
| 1778253590 | 17.78° C | 54% | 1018.6 hPa | 0 mm | - | - | - |
| 1778253290 | 17.78° C | 49% | 1018.6 hPa | 0 mm | - | - | - |
| 1778252990 | 17.22° C | 54% | 1018.6 hPa | 0 mm | - | - | - |
| 1778252690 | 17.22° C | 53% | 1018.6 hPa | 0 mm | - | - | - |
| 1778252390 | 17.22° C | 52% | 1018.6 hPa | 0 mm | - | - | - |
| 1778252088 | 16.67° C | 60% | 1018.8 hPa | 0 mm | - | - | - |
| 1778251788 | 16.67° C | 57% | 1018.7 hPa | 0 mm | - | - | - |
* Rain latest hour (hover to see other rain measurements)
** Current wind speed in m/s (hover to see current wind gust speed)